createdAt,value
2023-12-21T00:01:00.000Z,0
2023-12-21T00:02:04.000Z,0
2023-12-21T00:03:08.000Z,0
2023-12-21T00:04:12.000Z,0
2023-12-21T00:05:16.000Z,0
2023-12-21T00:06:21.000Z,0
2023-12-21T00:07:25.000Z,0
2023-12-21T00:08:29.000Z,0
2023-12-21T00:09:33.000Z,0
2023-12-21T00:10:37.000Z,0
2023-12-21T00:11:41.000Z,0
2023-12-21T00:12:45.000Z,0
2023-12-21T00:13:49.000Z,0
2023-12-21T00:14:54.000Z,0
2023-12-21T00:15:58.000Z,0
2023-12-21T00:17:02.000Z,0
2023-12-21T00:18:06.000Z,0
2023-12-21T00:19:10.000Z,0
2023-12-21T00:20:14.000Z,0
2023-12-21T00:21:18.000Z,0
2023-12-21T00:22:22.000Z,0
2023-12-21T00:23:27.000Z,0
2023-12-21T00:24:31.000Z,0
2023-12-21T00:25:35.000Z,0
2023-12-21T00:26:39.000Z,0
2023-12-21T00:27:43.000Z,0
2023-12-21T00:28:47.000Z,0
2023-12-21T00:29:51.000Z,0
2023-12-21T00:30:55.000Z,0
2023-12-21T00:32:00.000Z,0
2023-12-21T00:33:04.000Z,0
2023-12-21T00:34:08.000Z,0
2023-12-21T00:35:12.000Z,0
2023-12-21T00:36:16.000Z,0
2023-12-21T00:37:20.000Z,0
2023-12-21T00:38:24.000Z,0
2023-12-21T00:39:28.000Z,0
2023-12-21T00:40:33.000Z,0
2023-12-21T00:41:37.000Z,0
2023-12-21T00:42:41.000Z,0
2023-12-21T00:43:45.000Z,0
2023-12-21T00:44:49.000Z,0
2023-12-21T00:45:53.000Z,0
2023-12-21T00:46:57.000Z,0
2023-12-21T00:48:02.000Z,0
2023-12-21T00:49:06.000Z,0
2023-12-21T00:50:10.000Z,0
2023-12-21T00:51:14.000Z,0
2023-12-21T00:52:18.000Z,0
2023-12-21T00:53:22.000Z,0
2023-12-21T00:54:26.000Z,0
2023-12-21T00:55:30.000Z,0
2023-12-21T00:56:35.000Z,0
2023-12-21T00:57:39.000Z,0
2023-12-21T00:58:43.000Z,0
2023-12-21T00:59:47.000Z,0
2023-12-21T01:00:51.000Z,0
2023-12-21T01:01:55.000Z,0
2023-12-21T01:03:00.000Z,0
2023-12-21T01:04:04.000Z,0
2023-12-21T01:05:08.000Z,0
2023-12-21T01:06:12.000Z,0
2023-12-21T01:07:16.000Z,0
2023-12-21T01:08:20.000Z,0
2023-12-21T01:09:25.000Z,0
2023-12-21T01:10:29.000Z,0
2023-12-21T01:11:33.000Z,0
2023-12-21T01:12:37.000Z,0
2023-12-21T01:13:41.000Z,0
2023-12-21T01:14:45.000Z,0
2023-12-21T01:15:49.000Z,0
2023-12-21T01:16:53.000Z,0
2023-12-21T01:17:58.000Z,0
2023-12-21T01:19:02.000Z,0
2023-12-21T01:20:06.000Z,0
2023-12-21T01:21:10.000Z,0
2023-12-21T01:22:14.000Z,0
2023-12-21T01:23:18.000Z,0
2023-12-21T01:24:22.000Z,0
2023-12-21T01:25:26.000Z,0
2023-12-21T01:26:31.000Z,0
2023-12-21T01:27:35.000Z,0
2023-12-21T01:28:39.000Z,0
2023-12-21T01:29:43.000Z,0
2023-12-21T01:30:47.000Z,0
2023-12-21T01:31:51.000Z,0
2023-12-21T01:32:55.000Z,0
2023-12-21T01:34:00.000Z,0
2023-12-21T01:35:04.000Z,0
2023-12-21T01:36:08.000Z,0
2023-12-21T01:37:12.000Z,0
2023-12-21T01:38:16.000Z,0
2023-12-21T01:39:20.000Z,0
2023-12-21T01:40:24.000Z,0
2023-12-21T01:41:29.000Z,0
2023-12-21T01:42:33.000Z,0
2023-12-21T01:43:37.000Z,0
2023-12-21T01:44:41.000Z,0
2023-12-21T01:45:45.000Z,0
2023-12-21T01:46:49.000Z,0
2023-12-21T01:47:53.000Z,0
2023-12-21T01:48:58.000Z,0
2023-12-21T01:50:02.000Z,0
2023-12-21T01:51:06.000Z,0
2023-12-21T01:52:10.000Z,0
2023-12-21T01:53:14.000Z,0
2023-12-21T01:54:18.000Z,0
2023-12-21T01:55:22.000Z,0
2023-12-21T01:56:26.000Z,0
2023-12-21T01:57:31.000Z,0
2023-12-21T01:58:35.000Z,0
2023-12-21T01:59:39.000Z,0
2023-12-21T02:00:43.000Z,0
2023-12-21T02:01:47.000Z,0
2023-12-21T02:02:51.000Z,0
2023-12-21T02:03:55.000Z,0
2023-12-21T02:04:59.000Z,0
2023-12-21T02:06:03.000Z,0
2023-12-21T02:07:08.000Z,0
2023-12-21T02:08:12.000Z,0
2023-12-21T02:09:16.000Z,0
2023-12-21T02:10:20.000Z,0
2023-12-21T02:11:24.000Z,0
2023-12-21T02:12:28.000Z,0
2023-12-21T02:13:32.000Z,0
2023-12-21T02:14:37.000Z,0
2023-12-21T02:15:41.000Z,0
2023-12-21T02:16:45.000Z,0
2023-12-21T02:17:49.000Z,0
2023-12-21T02:18:53.000Z,0
2023-12-21T02:19:57.000Z,0
2023-12-21T02:21:01.000Z,0
2023-12-21T02:22:05.000Z,0
2023-12-21T02:23:10.000Z,0
2023-12-21T02:24:14.000Z,0
2023-12-21T02:25:18.000Z,0
2023-12-21T02:26:22.000Z,0
2023-12-21T02:27:26.000Z,0
2023-12-21T02:28:30.000Z,0
2023-12-21T02:29:34.000Z,0
2023-12-21T02:30:38.000Z,0
2023-12-21T02:31:43.000Z,0
2023-12-21T02:32:47.000Z,0
2023-12-21T02:33:51.000Z,0
2023-12-21T02:34:55.000Z,0
2023-12-21T02:35:59.000Z,0
2023-12-21T02:37:03.000Z,0
2023-12-21T02:38:07.000Z,0
2023-12-21T02:39:11.000Z,0
2023-12-21T02:40:16.000Z,0
2023-12-21T02:41:20.000Z,0
2023-12-21T02:42:24.000Z,0
2023-12-21T02:43:28.000Z,0
2023-12-21T02:44:32.000Z,0
2023-12-21T02:45:36.000Z,0
2023-12-21T02:46:40.000Z,0
2023-12-21T02:47:44.000Z,0
2023-12-21T02:48:49.000Z,0
2023-12-21T02:49:53.000Z,0
2023-12-21T02:50:57.000Z,0
2023-12-21T02:52:01.000Z,0
2023-12-21T02:53:05.000Z,0
2023-12-21T02:54:09.000Z,0
2023-12-21T02:55:14.000Z,0
2023-12-21T02:56:18.000Z,0
2023-12-21T02:57:22.000Z,0
2023-12-21T02:58:26.000Z,0
2023-12-21T02:59:30.000Z,0
2023-12-21T03:00:34.000Z,0
2023-12-21T03:01:39.000Z,0
2023-12-21T03:02:43.000Z,0
2023-12-21T03:03:47.000Z,0
2023-12-21T03:04:51.000Z,0
2023-12-21T03:05:55.000Z,0
2023-12-21T03:06:59.000Z,0
2023-12-21T03:08:03.000Z,0
2023-12-21T03:09:07.000Z,0
2023-12-21T03:10:12.000Z,0
2023-12-21T03:11:16.000Z,0
2023-12-21T03:12:20.000Z,0
2023-12-21T03:13:24.000Z,0
2023-12-21T03:14:28.000Z,0
2023-12-21T03:15:32.000Z,0
2023-12-21T03:16:36.000Z,0
2023-12-21T03:17:41.000Z,0
2023-12-21T03:18:45.000Z,0
2023-12-21T03:19:49.000Z,0
2023-12-21T03:20:53.000Z,0
2023-12-21T03:21:57.000Z,0
2023-12-21T03:23:01.000Z,0
2023-12-21T03:24:05.000Z,0
2023-12-21T03:25:10.000Z,0
2023-12-21T03:26:14.000Z,0
2023-12-21T03:27:18.000Z,0
2023-12-21T03:28:22.000Z,0
2023-12-21T03:29:26.000Z,0
2023-12-21T03:30:30.000Z,0
2023-12-21T03:31:34.000Z,0
2023-12-21T03:32:38.000Z,0
2023-12-21T03:33:42.000Z,0
2023-12-21T03:34:47.000Z,0
2023-12-21T03:35:51.000Z,0
2023-12-21T03:36:55.000Z,0
2023-12-21T03:37:59.000Z,0
2023-12-21T03:39:03.000Z,0
2023-12-21T03:40:07.000Z,0
2023-12-21T03:41:11.000Z,0
2023-12-21T03:42:16.000Z,0
2023-12-21T03:43:20.000Z,0
2023-12-21T03:44:24.000Z,0
2023-12-21T03:45:28.000Z,0
2023-12-21T03:46:32.000Z,0
2023-12-21T03:47:36.000Z,0
2023-12-21T03:48:40.000Z,0
2023-12-21T03:49:44.000Z,0
2023-12-21T03:50:49.000Z,0
2023-12-21T03:51:53.000Z,0
2023-12-21T03:52:57.000Z,0
2023-12-21T03:54:01.000Z,0
2023-12-21T03:55:05.000Z,0
2023-12-21T03:56:09.000Z,0
2023-12-21T03:57:13.000Z,0
2023-12-21T03:58:18.000Z,0
2023-12-21T03:59:22.000Z,0
2023-12-21T04:00:26.000Z,0
2023-12-21T04:01:30.000Z,0
2023-12-21T04:02:34.000Z,0
2023-12-21T04:03:38.000Z,0
2023-12-21T04:04:42.000Z,0
2023-12-21T04:05:46.000Z,0
2023-12-21T04:06:51.000Z,0
2023-12-21T04:07:55.000Z,0
2023-12-21T04:08:59.000Z,0
2023-12-21T04:10:03.000Z,0
2023-12-21T04:11:07.000Z,0
2023-12-21T04:12:11.000Z,0
2023-12-21T04:13:15.000Z,0
2023-12-21T04:14:20.000Z,0
2023-12-21T04:15:24.000Z,0
2023-12-21T04:16:28.000Z,0
2023-12-21T04:17:32.000Z,0
2023-12-21T04:18:36.000Z,0
2023-12-21T04:19:40.000Z,0
2023-12-21T04:20:44.000Z,0
2023-12-21T04:21:48.000Z,0
2023-12-21T04:22:53.000Z,0
2023-12-21T04:23:57.000Z,0
2023-12-21T04:25:01.000Z,0
2023-12-21T04:26:05.000Z,0
2023-12-21T04:27:09.000Z,0
2023-12-21T04:28:13.000Z,0
2023-12-21T04:29:17.000Z,0
2023-12-21T04:30:21.000Z,0
2023-12-21T04:31:26.000Z,0
2023-12-21T04:32:30.000Z,0
2023-12-21T04:33:34.000Z,0
2023-12-21T04:34:38.000Z,0
2023-12-21T04:35:42.000Z,0
2023-12-21T04:36:46.000Z,0
2023-12-21T04:37:50.000Z,0
2023-12-21T04:38:55.000Z,0
2023-12-21T04:39:59.000Z,0
2023-12-21T04:41:03.000Z,0
2023-12-21T04:42:07.000Z,0
2023-12-21T04:43:11.000Z,0
2023-12-21T04:44:15.000Z,0
2023-12-21T04:45:19.000Z,0
2023-12-21T04:46:23.000Z,0
2023-12-21T04:47:28.000Z,0
2023-12-21T04:48:32.000Z,0
2023-12-21T04:49:36.000Z,0
2023-12-21T04:50:40.000Z,0
2023-12-21T04:51:44.000Z,0
2023-12-21T04:52:48.000Z,0
2023-12-21T04:53:52.000Z,0
2023-12-21T04:54:57.000Z,0
2023-12-21T04:56:01.000Z,0
2023-12-21T04:57:05.000Z,0
2023-12-21T04:58:09.000Z,0
2023-12-21T04:59:13.000Z,0
2023-12-21T05:00:17.000Z,0
2023-12-21T05:01:21.000Z,0
2023-12-21T05:02:26.000Z,0
2023-12-21T05:03:30.000Z,0
2023-12-21T05:04:34.000Z,0
2023-12-21T05:05:38.000Z,0
2023-12-21T05:06:42.000Z,0
2023-12-21T05:07:46.000Z,0
2023-12-21T05:08:51.000Z,0
2023-12-21T05:09:55.000Z,0
2023-12-21T05:10:59.000Z,0
2023-12-21T05:12:03.000Z,0
2023-12-21T05:13:07.000Z,0
2023-12-21T05:14:11.000Z,0
2023-12-21T05:15:16.000Z,0
2023-12-21T05:16:20.000Z,0
2023-12-21T05:17:24.000Z,0
2023-12-21T05:18:28.000Z,0
2023-12-21T05:19:32.000Z,0
2023-12-21T05:20:36.000Z,0
2023-12-21T05:21:41.000Z,0
2023-12-21T05:22:45.000Z,0
2023-12-21T05:23:49.000Z,0
2023-12-21T05:24:53.000Z,0
2023-12-21T05:25:57.000Z,0
2023-12-21T05:27:01.000Z,0
2023-12-21T05:28:06.000Z,0
2023-12-21T05:29:10.000Z,0
2023-12-21T05:30:14.000Z,0
2023-12-21T05:31:18.000Z,0
2023-12-21T05:32:22.000Z,0
2023-12-21T05:33:26.000Z,0
2023-12-21T05:34:30.000Z,0
2023-12-21T05:35:35.000Z,0
2023-12-21T05:36:39.000Z,0
2023-12-21T05:37:43.000Z,0
2023-12-21T05:38:47.000Z,0
2023-12-21T05:39:51.000Z,0
2023-12-21T05:40:55.000Z,0
2023-12-21T05:41:59.000Z,0
2023-12-21T05:43:03.000Z,0
2023-12-21T05:44:08.000Z,0
2023-12-21T05:45:12.000Z,0
2023-12-21T05:46:16.000Z,0
2023-12-21T05:47:20.000Z,0
2023-12-21T05:48:24.000Z,0
2023-12-21T05:49:28.000Z,0
2023-12-21T05:50:32.000Z,0
2023-12-21T05:51:36.000Z,0
2023-12-21T05:52:41.000Z,0
2023-12-21T05:53:45.000Z,0
2023-12-21T05:54:49.000Z,0
2023-12-21T05:55:53.000Z,0
2023-12-21T05:56:57.000Z,0
2023-12-21T05:58:01.000Z,0
2023-12-21T05:59:05.000Z,0
2023-12-21T06:00:09.000Z,0
2023-12-21T06:01:14.000Z,0
2023-12-21T06:02:18.000Z,0
2023-12-21T06:03:22.000Z,0
2023-12-21T06:04:26.000Z,0
2023-12-21T06:05:30.000Z,0
2023-12-21T06:06:34.000Z,0
2023-12-21T06:07:38.000Z,0
2023-12-21T06:08:43.000Z,0
2023-12-21T06:09:47.000Z,0
2023-12-21T06:10:51.000Z,0
2023-12-21T06:11:55.000Z,0
2023-12-21T06:12:59.000Z,0
2023-12-21T06:14:03.000Z,0
2023-12-21T06:15:07.000Z,0
2023-12-21T06:16:11.000Z,0
2023-12-21T06:17:16.000Z,0
2023-12-21T06:18:20.000Z,0
2023-12-21T06:19:24.000Z,0
2023-12-21T06:20:28.000Z,0
2023-12-21T06:21:32.000Z,0
2023-12-21T06:22:36.000Z,0
2023-12-21T06:23:40.000Z,0
2023-12-21T06:24:45.000Z,0
2023-12-21T06:25:49.000Z,0
2023-12-21T06:26:53.000Z,0
2023-12-21T06:27:57.000Z,0
2023-12-21T06:29:01.000Z,0
2023-12-21T06:30:05.000Z,0
2023-12-21T06:31:09.000Z,0
2023-12-21T06:32:13.000Z,0
2023-12-21T06:33:18.000Z,0
2023-12-21T06:34:22.000Z,0
2023-12-21T06:35:26.000Z,0
2023-12-21T06:36:30.000Z,0
2023-12-21T06:37:34.000Z,0
2023-12-21T06:38:38.000Z,0
2023-12-21T06:39:42.000Z,0
2023-12-21T06:40:46.000Z,0
2023-12-21T06:41:51.000Z,0
2023-12-21T06:42:55.000Z,0
2023-12-21T06:43:59.000Z,0
2023-12-21T06:45:03.000Z,0
2023-12-21T06:46:07.000Z,0
2023-12-21T06:47:11.000Z,0
2023-12-21T06:48:15.000Z,0
2023-12-21T06:49:20.000Z,0
2023-12-21T06:50:24.000Z,0
2023-12-21T06:51:28.000Z,0
2023-12-21T06:52:32.000Z,0
2023-12-21T06:53:36.000Z,0
2023-12-21T06:54:40.000Z,0
2023-12-21T06:55:44.000Z,0
2023-12-21T06:56:49.000Z,0
2023-12-21T06:57:53.000Z,0
2023-12-21T06:58:57.000Z,0
2023-12-21T07:00:01.000Z,0
2023-12-21T07:01:05.000Z,0
2023-12-21T07:02:09.000Z,0
2023-12-21T07:03:13.000Z,0
2023-12-21T07:04:17.000Z,0
2023-12-21T07:05:22.000Z,0
2023-12-21T07:06:26.000Z,0
2023-12-21T07:07:30.000Z,0
2023-12-21T07:08:34.000Z,0
2023-12-21T07:09:38.000Z,0
2023-12-21T07:10:42.000Z,0
2023-12-21T07:11:46.000Z,0
2023-12-21T07:12:50.000Z,0
2023-12-21T07:13:55.000Z,0
2023-12-21T07:14:59.000Z,0
2023-12-21T07:16:03.000Z,0
2023-12-21T07:17:07.000Z,0
2023-12-21T07:18:11.000Z,0
2023-12-21T07:19:15.000Z,0
2023-12-21T07:20:20.000Z,1
2023-12-21T07:21:24.000Z,1
2023-12-21T07:22:28.000Z,1
2023-12-21T07:23:32.000Z,1
2023-12-21T07:24:36.000Z,1
2023-12-21T07:25:40.000Z,1
2023-12-21T07:26:44.000Z,1
2023-12-21T07:27:49.000Z,1
2023-12-21T07:28:53.000Z,1
2023-12-21T07:29:57.000Z,1
2023-12-21T07:31:01.000Z,1
2023-12-21T07:32:05.000Z,1
2023-12-21T07:33:10.000Z,1
2023-12-21T07:34:14.000Z,2
2023-12-21T07:35:18.000Z,2
2023-12-21T07:36:22.000Z,3
2023-12-21T07:37:26.000Z,3
2023-12-21T07:38:30.000Z,4
2023-12-21T07:39:35.000Z,4
2023-12-21T07:40:39.000Z,5
2023-12-21T07:41:43.000Z,4
2023-12-21T07:42:47.000Z,4
2023-12-21T07:43:51.000Z,5
2023-12-21T07:44:55.000Z,4
2023-12-21T07:45:59.000Z,4
2023-12-21T07:47:03.000Z,4
2023-12-21T07:48:08.000Z,4
2023-12-21T07:49:12.000Z,4
2023-12-21T07:50:16.000Z,4
2023-12-21T07:51:20.000Z,4
2023-12-21T07:52:24.000Z,3
2023-12-21T07:53:28.000Z,3
2023-12-21T07:54:32.000Z,4
2023-12-21T07:55:37.000Z,4
2023-12-21T07:56:41.000Z,5
2023-12-21T07:57:45.000Z,5
2023-12-21T07:58:49.000Z,6
2023-12-21T07:59:53.000Z,6
2023-12-21T08:00:57.000Z,7
2023-12-21T08:02:01.000Z,7
2023-12-21T08:03:06.000Z,6
2023-12-21T08:04:10.000Z,6
2023-12-21T08:05:14.000Z,6
2023-12-21T08:06:18.000Z,6
2023-12-21T08:07:22.000Z,6
2023-12-21T08:08:26.000Z,6
2023-12-21T08:09:30.000Z,6
2023-12-21T08:10:34.000Z,6
2023-12-21T08:11:39.000Z,6
2023-12-21T08:12:43.000Z,6
2023-12-21T08:13:47.000Z,6
2023-12-21T08:14:51.000Z,7
2023-12-21T08:15:55.000Z,7
2023-12-21T08:16:59.000Z,7
2023-12-21T08:18:03.000Z,7
2023-12-21T08:19:08.000Z,8
2023-12-21T08:20:12.000Z,9
2023-12-21T08:21:16.000Z,10
2023-12-21T08:22:20.000Z,10
2023-12-21T08:23:24.000Z,11
2023-12-21T08:24:28.000Z,11
2023-12-21T08:25:32.000Z,11
2023-12-21T08:26:36.000Z,11
2023-12-21T08:27:41.000Z,11
2023-12-21T08:28:45.000Z,11
2023-12-21T08:29:49.000Z,11
2023-12-21T08:30:53.000Z,11
2023-12-21T08:31:57.000Z,11
2023-12-21T08:33:01.000Z,11
2023-12-21T08:34:05.000Z,12
2023-12-21T08:35:09.000Z,13
2023-12-21T08:36:14.000Z,14
2023-12-21T08:37:18.000Z,16
2023-12-21T08:38:22.000Z,16
2023-12-21T08:39:26.000Z,17
2023-12-21T08:40:30.000Z,17
2023-12-21T08:41:34.000Z,18
2023-12-21T08:42:38.000Z,18
2023-12-21T08:43:43.000Z,20
2023-12-21T08:44:47.000Z,22
2023-12-21T08:45:51.000Z,22
2023-12-21T08:46:55.000Z,22
2023-12-21T08:47:59.000Z,23
2023-12-21T08:49:03.000Z,24
2023-12-21T08:50:07.000Z,23
2023-12-21T08:51:12.000Z,23
2023-12-21T08:52:16.000Z,24
2023-12-21T08:53:20.000Z,25
2023-12-21T08:54:24.000Z,24
2023-12-21T08:55:28.000Z,23
2023-12-21T08:56:32.000Z,21
2023-12-21T08:57:36.000Z,22
2023-12-21T08:58:40.000Z,21
2023-12-21T08:59:45.000Z,22
2023-12-21T09:00:49.000Z,23
2023-12-21T09:01:53.000Z,24
2023-12-21T09:02:57.000Z,27
2023-12-21T09:04:01.000Z,32
2023-12-21T09:05:05.000Z,35
2023-12-21T09:06:09.000Z,33
2023-12-21T09:07:14.000Z,29
2023-12-21T09:08:18.000Z,22
2023-12-21T09:09:22.000Z,19
2023-12-21T09:10:26.000Z,16
2023-12-21T09:11:30.000Z,15
2023-12-21T09:12:34.000Z,14
2023-12-21T09:13:38.000Z,15
2023-12-21T09:14:42.000Z,16
2023-12-21T09:15:47.000Z,17
2023-12-21T09:16:51.000Z,17
2023-12-21T09:17:55.000Z,16
2023-12-21T09:18:59.000Z,15
2023-12-21T09:20:03.000Z,14
2023-12-21T09:21:07.000Z,13
2023-12-21T09:22:11.000Z,12
2023-12-21T09:23:15.000Z,13
2023-12-21T09:24:20.000Z,13
2023-12-21T09:25:24.000Z,12
2023-12-21T09:26:28.000Z,13
2023-12-21T09:27:32.000Z,13
2023-12-21T09:28:36.000Z,13
2023-12-21T09:29:40.000Z,13
2023-12-21T09:30:44.000Z,14
2023-12-21T09:31:48.000Z,17
2023-12-21T09:32:53.000Z,19
2023-12-21T09:33:57.000Z,20
2023-12-21T09:35:01.000Z,20
2023-12-21T09:36:05.000Z,20
2023-12-21T09:37:09.000Z,20
2023-12-21T09:38:13.000Z,21
2023-12-21T09:39:17.000Z,22
2023-12-21T09:40:22.000Z,23
2023-12-21T09:41:26.000Z,21
2023-12-21T09:42:30.000Z,25
2023-12-21T09:43:34.000Z,26
2023-12-21T09:44:38.000Z,24
2023-12-21T09:45:42.000Z,25
2023-12-21T09:46:47.000Z,25
2023-12-21T09:47:51.000Z,25
2023-12-21T09:48:55.000Z,26
2023-12-21T09:49:59.000Z,26
2023-12-21T09:51:03.000Z,25
2023-12-21T09:52:07.000Z,25
2023-12-21T09:53:12.000Z,32
2023-12-21T09:54:16.000Z,38
2023-12-21T09:55:20.000Z,37
2023-12-21T09:56:24.000Z,34
2023-12-21T09:57:28.000Z,31
2023-12-21T09:58:32.000Z,28
2023-12-21T09:59:36.000Z,25
2023-12-21T10:00:41.000Z,23
2023-12-21T10:01:45.000Z,23
2023-12-21T10:02:49.000Z,26
2023-12-21T10:03:53.000Z,30
2023-12-21T10:04:57.000Z,33
2023-12-21T10:06:01.000Z,31
2023-12-21T10:07:05.000Z,26
2023-12-21T10:08:09.000Z,22
2023-12-21T10:09:14.000Z,19
2023-12-21T10:10:18.000Z,17
2023-12-21T10:11:22.000Z,19
2023-12-21T10:12:26.000Z,21
2023-12-21T10:13:30.000Z,24
2023-12-21T10:14:34.000Z,25
2023-12-21T10:15:38.000Z,24
2023-12-21T10:16:42.000Z,21
2023-12-21T10:17:47.000Z,19
2023-12-21T10:18:51.000Z,18
2023-12-21T10:19:55.000Z,20
2023-12-21T10:20:59.000Z,22
2023-12-21T10:22:03.000Z,20
2023-12-21T10:23:07.000Z,22
2023-12-21T10:24:11.000Z,21
2023-12-21T10:25:16.000Z,19
2023-12-21T10:26:20.000Z,18
2023-12-21T10:27:24.000Z,18
2023-12-21T10:28:28.000Z,18
2023-12-21T10:29:32.000Z,18
2023-12-21T10:30:36.000Z,20
2023-12-21T10:31:40.000Z,22
2023-12-21T10:32:44.000Z,22
2023-12-21T10:33:49.000Z,20
2023-12-21T10:34:53.000Z,19
2023-12-21T10:35:57.000Z,20
2023-12-21T10:37:01.000Z,22
2023-12-21T10:38:05.000Z,22
2023-12-21T10:39:09.000Z,22
2023-12-21T10:40:13.000Z,23
2023-12-21T10:41:18.000Z,23
2023-12-21T10:42:22.000Z,23
2023-12-21T10:43:26.000Z,24
2023-12-21T10:44:30.000Z,23
2023-12-21T10:45:34.000Z,22
2023-12-21T10:46:38.000Z,22
2023-12-21T10:47:42.000Z,23
2023-12-21T10:48:46.000Z,21
2023-12-21T10:49:51.000Z,19
2023-12-21T10:50:55.000Z,16
2023-12-21T10:51:59.000Z,17
2023-12-21T10:53:03.000Z,16
2023-12-21T10:54:07.000Z,13
2023-12-21T10:55:11.000Z,13
2023-12-21T10:56:16.000Z,13
2023-12-21T10:57:20.000Z,11
2023-12-21T10:58:24.000Z,9
2023-12-21T10:59:28.000Z,10
2023-12-21T11:00:32.000Z,15
2023-12-21T11:01:36.000Z,22
2023-12-21T11:02:40.000Z,26
2023-12-21T11:03:44.000Z,25
2023-12-21T11:04:48.000Z,23
2023-12-21T11:05:53.000Z,21
2023-12-21T11:06:57.000Z,25
2023-12-21T11:08:01.000Z,25
2023-12-21T11:09:05.000Z,26
2023-12-21T11:10:09.000Z,25
2023-12-21T11:11:13.000Z,25
2023-12-21T11:12:17.000Z,26
2023-12-21T11:13:22.000Z,25
2023-12-21T11:14:26.000Z,24
2023-12-21T11:15:30.000Z,24
2023-12-21T11:16:34.000Z,24
2023-12-21T11:17:38.000Z,26
2023-12-21T11:18:42.000Z,32
2023-12-21T11:19:46.000Z,34
2023-12-21T11:20:50.000Z,34
2023-12-21T11:21:55.000Z,36
2023-12-21T11:22:59.000Z,38
2023-12-21T11:24:03.000Z,37
2023-12-21T11:25:07.000Z,34
2023-12-21T11:26:11.000Z,35
2023-12-21T11:27:15.000Z,34
2023-12-21T11:28:19.000Z,29
2023-12-21T11:29:24.000Z,30
2023-12-21T11:30:28.000Z,25
2023-12-21T11:31:32.000Z,26
2023-12-21T11:32:36.000Z,26
2023-12-21T11:33:40.000Z,31
2023-12-21T11:34:44.000Z,32
2023-12-21T11:35:48.000Z,35
2023-12-21T11:36:53.000Z,34
2023-12-21T11:37:57.000Z,35
2023-12-21T11:39:01.000Z,32
2023-12-21T11:40:05.000Z,32
2023-12-21T11:41:09.000Z,33
2023-12-21T11:42:13.000Z,32
2023-12-21T11:43:18.000Z,33
2023-12-21T11:44:22.000Z,32
2023-12-21T11:45:26.000Z,28
2023-12-21T11:46:30.000Z,33
2023-12-21T11:47:34.000Z,34
2023-12-21T11:48:38.000Z,38
2023-12-21T11:49:43.000Z,42
2023-12-21T11:50:47.000Z,38
2023-12-21T11:51:51.000Z,40
2023-12-21T11:52:55.000Z,40
2023-12-21T11:53:59.000Z,42
2023-12-21T11:55:03.000Z,42
2023-12-21T11:56:08.000Z,38
2023-12-21T11:57:12.000Z,40
2023-12-21T11:58:16.000Z,31
2023-12-21T11:59:20.000Z,28
2023-12-21T12:00:24.000Z,30
2023-12-21T12:01:28.000Z,23
2023-12-21T12:02:32.000Z,25
2023-12-21T12:03:37.000Z,24
2023-12-21T12:04:41.000Z,25
2023-12-21T12:05:45.000Z,28
2023-12-21T12:06:49.000Z,24
2023-12-21T12:07:53.000Z,23
2023-12-21T12:08:57.000Z,25
2023-12-21T12:10:01.000Z,25
2023-12-21T12:11:06.000Z,23
2023-12-21T12:12:10.000Z,20
2023-12-21T12:13:14.000Z,19
2023-12-21T12:14:18.000Z,22
2023-12-21T12:15:22.000Z,22
2023-12-21T12:16:26.000Z,22
2023-12-21T12:17:30.000Z,21
2023-12-21T12:18:34.000Z,20
2023-12-21T12:19:39.000Z,21
2023-12-21T12:20:43.000Z,20
2023-12-21T12:21:47.000Z,21
2023-12-21T12:22:51.000Z,24
2023-12-21T12:23:55.000Z,20
2023-12-21T12:24:59.000Z,24
2023-12-21T12:26:03.000Z,24
2023-12-21T12:27:08.000Z,26
2023-12-21T12:28:12.000Z,31
2023-12-21T12:29:16.000Z,28
2023-12-21T12:30:20.000Z,27
2023-12-21T12:31:24.000Z,25
2023-12-21T12:32:28.000Z,23
2023-12-21T12:33:32.000Z,25
2023-12-21T12:34:37.000Z,25
2023-12-21T12:35:41.000Z,30
2023-12-21T12:36:45.000Z,33
2023-12-21T12:37:49.000Z,33
2023-12-21T12:38:53.000Z,35
2023-12-21T12:39:57.000Z,35
2023-12-21T12:41:01.000Z,36
2023-12-21T12:42:06.000Z,33
2023-12-21T12:43:10.000Z,31
2023-12-21T12:44:14.000Z,35
2023-12-21T12:45:18.000Z,28
2023-12-21T12:46:22.000Z,29
2023-12-21T12:47:26.000Z,29
2023-12-21T12:48:30.000Z,26
2023-12-21T12:49:34.000Z,22
2023-12-21T12:50:39.000Z,22
2023-12-21T12:51:43.000Z,21
2023-12-21T12:52:47.000Z,19
2023-12-21T12:53:51.000Z,21
2023-12-21T12:54:55.000Z,24
2023-12-21T12:55:59.000Z,24
2023-12-21T12:57:03.000Z,26
2023-12-21T12:58:07.000Z,23
2023-12-21T12:59:12.000Z,19
2023-12-21T13:00:16.000Z,17
2023-12-21T13:01:20.000Z,17
2023-12-21T13:02:24.000Z,16
2023-12-21T13:03:28.000Z,14
2023-12-21T13:04:32.000Z,13
2023-12-21T13:05:36.000Z,16
2023-12-21T13:06:41.000Z,19
2023-12-21T13:07:45.000Z,19
2023-12-21T13:08:49.000Z,23
2023-12-21T13:09:53.000Z,22
2023-12-21T13:10:57.000Z,19
2023-12-21T13:12:01.000Z,18
2023-12-21T13:13:05.000Z,22
2023-12-21T13:14:09.000Z,22
2023-12-21T13:15:13.000Z,18
2023-12-21T13:16:18.000Z,19
2023-12-21T13:17:22.000Z,19
2023-12-21T13:18:26.000Z,15
2023-12-21T13:19:30.000Z,15
2023-12-21T13:20:34.000Z,17
2023-12-21T13:21:38.000Z,24
2023-12-21T13:22:42.000Z,22
2023-12-21T13:23:46.000Z,21
2023-12-21T13:24:51.000Z,21
2023-12-21T13:25:55.000Z,24
2023-12-21T13:26:59.000Z,26
2023-12-21T13:28:03.000Z,26
2023-12-21T13:29:07.000Z,27
2023-12-21T13:30:11.000Z,27
2023-12-21T13:31:16.000Z,25
2023-12-21T13:32:20.000Z,24
2023-12-21T13:33:24.000Z,25
2023-12-21T13:34:28.000Z,25
2023-12-21T13:35:32.000Z,26
2023-12-21T13:36:36.000Z,24
2023-12-21T13:37:40.000Z,21
2023-12-21T13:38:45.000Z,18
2023-12-21T13:39:49.000Z,18
2023-12-21T13:40:53.000Z,15
2023-12-21T13:41:57.000Z,15
2023-12-21T13:43:01.000Z,16
2023-12-21T13:44:05.000Z,16
2023-12-21T13:45:10.000Z,16
2023-12-21T13:46:14.000Z,17
2023-12-21T13:47:18.000Z,19
2023-12-21T13:48:22.000Z,17
2023-12-21T13:49:26.000Z,19
2023-12-21T13:50:30.000Z,20
2023-12-21T13:51:35.000Z,20
2023-12-21T13:52:39.000Z,21
2023-12-21T13:53:43.000Z,22
2023-12-21T13:54:47.000Z,21
2023-12-21T13:55:51.000Z,20
2023-12-21T13:56:55.000Z,19
2023-12-21T13:58:00.000Z,19
2023-12-21T13:59:04.000Z,17
2023-12-21T14:00:08.000Z,13
2023-12-21T14:01:12.000Z,10
2023-12-21T14:02:16.000Z,8
2023-12-21T14:03:20.000Z,11
2023-12-21T14:04:24.000Z,12
2023-12-21T14:05:29.000Z,14
2023-12-21T14:06:33.000Z,21
2023-12-21T14:07:37.000Z,22
2023-12-21T14:08:41.000Z,23
2023-12-21T14:09:45.000Z,22
2023-12-21T14:10:49.000Z,20
2023-12-21T14:11:53.000Z,22
2023-12-21T14:12:58.000Z,26
2023-12-21T14:14:02.000Z,27
2023-12-21T14:15:06.000Z,17
2023-12-21T14:16:10.000Z,13
2023-12-21T14:17:14.000Z,16
2023-12-21T14:18:18.000Z,15
2023-12-21T14:19:22.000Z,18
2023-12-21T14:20:26.000Z,18
2023-12-21T14:21:31.000Z,17
2023-12-21T14:22:35.000Z,16
2023-12-21T14:23:39.000Z,16
2023-12-21T14:24:43.000Z,18
2023-12-21T14:25:47.000Z,16
2023-12-21T14:26:51.000Z,14
2023-12-21T14:27:55.000Z,14
2023-12-21T14:29:00.000Z,16
2023-12-21T14:30:04.000Z,13
2023-12-21T14:31:08.000Z,11
2023-12-21T14:32:12.000Z,10
2023-12-21T14:33:16.000Z,8
2023-12-21T14:34:20.000Z,7
2023-12-21T14:35:24.000Z,6
2023-12-21T14:36:29.000Z,6
2023-12-21T14:37:33.000Z,6
2023-12-21T14:38:37.000Z,5
2023-12-21T14:39:41.000Z,6
2023-12-21T14:40:45.000Z,5
2023-12-21T14:41:49.000Z,4
2023-12-21T14:42:53.000Z,3
2023-12-21T14:43:58.000Z,3
2023-12-21T14:45:02.000Z,3
2023-12-21T14:46:06.000Z,3
2023-12-21T14:47:10.000Z,4
2023-12-21T14:48:14.000Z,5
2023-12-21T14:49:18.000Z,5
2023-12-21T14:50:22.000Z,6
2023-12-21T14:51:27.000Z,5
2023-12-21T14:52:31.000Z,6
2023-12-21T14:53:35.000Z,6
2023-12-21T14:54:39.000Z,5
2023-12-21T14:55:43.000Z,4
2023-12-21T14:56:47.000Z,4
2023-12-21T14:57:51.000Z,4
2023-12-21T14:58:55.000Z,4
2023-12-21T14:59:59.000Z,4
2023-12-21T15:01:04.000Z,3
2023-12-21T15:02:08.000Z,3
2023-12-21T15:03:12.000Z,2
2023-12-21T15:04:16.000Z,2
2023-12-21T15:05:20.000Z,2
2023-12-21T15:06:24.000Z,1
2023-12-21T15:07:28.000Z,1
2023-12-21T15:08:33.000Z,0
2023-12-21T15:09:37.000Z,0
2023-12-21T15:10:41.000Z,0
2023-12-21T15:11:45.000Z,0
2023-12-21T15:12:49.000Z,0
2023-12-21T15:13:53.000Z,0
2023-12-21T15:14:57.000Z,0
2023-12-21T15:16:01.000Z,0
2023-12-21T15:17:06.000Z,0
2023-12-21T15:18:10.000Z,0
2023-12-21T15:19:14.000Z,0
2023-12-21T15:20:18.000Z,0
2023-12-21T15:21:22.000Z,0
2023-12-21T15:22:26.000Z,0
2023-12-21T15:23:30.000Z,0
2023-12-21T15:24:35.000Z,0
2023-12-21T15:25:39.000Z,0
2023-12-21T15:26:43.000Z,0
2023-12-21T15:27:47.000Z,0
2023-12-21T15:28:51.000Z,0
2023-12-21T15:29:55.000Z,0
2023-12-21T15:30:59.000Z,0
2023-12-21T15:32:03.000Z,0
2023-12-21T15:33:08.000Z,0
2023-12-21T15:34:12.000Z,0
2023-12-21T15:35:16.000Z,0